createdAt,value
2023-01-17T00:01:16.019Z,5.30
2023-01-17T00:04:21.444Z,5.40
2023-01-17T00:07:27.998Z,5.30
2023-01-17T00:10:23.044Z,5.30
2023-01-17T00:13:08.507Z,5.30
2023-01-17T00:15:54.308Z,5.30
2023-01-17T00:18:40.038Z,5.30
2023-01-17T00:21:44.852Z,5.30
2023-01-17T00:24:50.334Z,5.20
2023-01-17T00:27:36.430Z,5.20
2023-01-17T00:30:22.591Z,5.10
2023-01-17T00:33:08.585Z,5.10
2023-01-17T00:35:56.177Z,5.20
2023-01-17T00:38:42.445Z,5.20
2023-01-17T00:41:28.900Z,5.10
2023-01-17T00:44:33.951Z,5.00
2023-01-17T00:47:37.775Z,5.00
2023-01-17T00:50:41.918Z,5.00
2023-01-17T00:53:45.787Z,5.00
2023-01-17T00:56:49.693Z,5.00
2023-01-17T00:59:54.548Z,4.90
2023-01-17T01:02:59.905Z,5.00
2023-01-17T01:06:03.747Z,5.20
2023-01-17T01:09:07.783Z,5.40
2023-01-17T01:12:12.147Z,5.30
2023-01-17T01:15:16.881Z,5.20
2023-01-17T01:18:26.330Z,5.20
2023-01-17T01:21:31.733Z,5.30
2023-01-17T01:24:36.731Z,5.30
2023-01-17T01:27:40.678Z,5.30
2023-01-17T01:30:44.632Z,5.30
2023-01-17T01:33:30.341Z,5.30
2023-01-17T01:36:15.866Z,5.10
2023-01-17T01:39:01.644Z,5.20
2023-01-17T01:41:47.580Z,5.20
2023-01-17T01:44:59.781Z,5.20
2023-01-17T01:47:47.471Z,5.20
2023-01-17T01:50:37.552Z,5.20
2023-01-17T01:53:23.684Z,5.20
2023-01-17T01:56:13.181Z,5.20
2023-01-17T01:59:03.932Z,5.20
2023-01-17T02:01:58.079Z,5.10
2023-01-17T02:04:45.486Z,5.20
2023-01-17T02:07:39.431Z,5.20
2023-01-17T02:10:25.392Z,5.30
2023-01-17T02:13:13.355Z,5.30
2023-01-17T02:16:27.314Z,5.20
2023-01-17T02:19:35.412Z,5.30
2023-01-17T02:22:55.591Z,5.20
2023-01-17T02:26:12.410Z,5.30
2023-01-17T02:29:36.215Z,5.30
2023-01-17T02:32:56.335Z,5.30
2023-01-17T02:36:04.595Z,5.30
2023-01-17T02:39:15.488Z,5.30
2023-01-17T02:42:14.454Z,5.30
2023-01-17T02:45:03.329Z,5.30
2023-01-17T02:47:49.566Z,5.20
2023-01-17T02:51:03.417Z,5.20
2023-01-17T02:53:58.732Z,5.20
2023-01-17T02:57:05.563Z,5.10
2023-01-17T03:00:19.940Z,5.20
2023-01-17T03:03:20.567Z,5.20
2023-01-17T03:06:14.741Z,5.20
2023-01-17T03:09:01.375Z,5.20
2023-01-17T03:11:46.991Z,5.30
2023-01-17T03:14:32.305Z,5.30
2023-01-17T03:17:19.098Z,5.30
2023-01-17T03:20:05.161Z,5.20
2023-01-17T03:22:51.354Z,5.20
2023-01-17T03:25:37.548Z,5.10
2023-01-17T03:28:23.730Z,5.10
2023-01-17T03:31:09.275Z,5.00
2023-01-17T03:33:55.301Z,5.10
2023-01-17T03:36:41.027Z,5.20
2023-01-17T03:39:27.313Z,5.10
2023-01-17T03:42:12.996Z,5.00
2023-01-17T03:44:58.899Z,5.10
2023-01-17T03:47:44.697Z,5.10
2023-01-17T03:50:30.132Z,5.10
2023-01-17T03:53:15.593Z,5.10
2023-01-17T03:56:01.027Z,5.00
2023-01-17T03:58:46.912Z,5.10
2023-01-17T04:01:32.691Z,5.00
2023-01-17T04:04:18.072Z,5.00
2023-01-17T04:07:03.935Z,4.90
2023-01-17T04:09:50.049Z,5.00
2023-01-17T04:12:36.071Z,5.00
2023-01-17T04:15:22.365Z,4.90
2023-01-17T04:18:07.918Z,4.90
2023-01-17T04:20:53.577Z,4.80
2023-01-17T04:23:39.606Z,4.80
2023-01-17T04:26:25.611Z,4.80
2023-01-17T04:29:12.218Z,4.80
2023-01-17T04:31:57.964Z,4.70
2023-01-17T04:34:44.185Z,4.70
2023-01-17T04:37:29.822Z,4.60
2023-01-17T04:40:15.562Z,4.80
2023-01-17T04:43:01.555Z,4.90
2023-01-17T04:45:48.029Z,4.80
2023-01-17T04:48:34.022Z,4.80
2023-01-17T04:51:20.319Z,4.80
2023-01-17T04:54:05.759Z,4.80
2023-01-17T04:56:51.283Z,4.90
2023-01-17T04:59:36.848Z,4.90
2023-01-17T05:02:23.089Z,5.00
2023-01-17T05:05:09.260Z,5.00
2023-01-17T05:07:56.345Z,5.00
2023-01-17T05:10:42.079Z,5.00
2023-01-17T05:13:28.247Z,4.90
2023-01-17T05:16:17.231Z,5.00
2023-01-17T05:19:02.889Z,4.90
2023-01-17T05:21:48.771Z,4.90
2023-01-17T05:24:34.421Z,5.00
2023-01-17T05:27:21.330Z,4.90
2023-01-17T05:30:07.475Z,4.90
2023-01-17T05:32:56.106Z,5.00
2023-01-17T05:35:41.718Z,5.10
2023-01-17T05:38:27.043Z,5.00
2023-01-17T05:41:12.991Z,5.00
2023-01-17T05:43:59.468Z,5.20
2023-01-17T05:46:45.556Z,5.10
2023-01-17T05:49:31.110Z,5.20
2023-01-17T05:52:17.120Z,5.20
2023-01-17T05:55:02.921Z,5.10
2023-01-17T05:57:48.958Z,5.10
2023-01-17T06:00:35.395Z,5.10
2023-01-17T06:03:21.552Z,5.10
2023-01-17T06:06:07.324Z,4.90
2023-01-17T06:08:53.088Z,4.80
2023-01-17T06:11:39.149Z,4.90
2023-01-17T06:14:25.048Z,4.80
2023-01-17T06:17:10.503Z,4.90
2023-01-17T06:19:56.431Z,5.00
2023-01-17T06:22:42.459Z,5.00
2023-01-17T06:25:28.986Z,5.00
2023-01-17T06:28:17.193Z,5.00
2023-01-17T06:31:07.942Z,5.00
2023-01-17T06:33:54.125Z,5.00
2023-01-17T06:36:40.363Z,4.90
2023-01-17T06:39:26.489Z,5.00
2023-01-17T06:42:12.662Z,4.80
2023-01-17T06:44:58.341Z,4.80
2023-01-17T06:47:43.986Z,4.80
2023-01-17T06:50:30.696Z,4.90
2023-01-17T06:53:17.158Z,5.00
2023-01-17T06:56:03.355Z,5.10
2023-01-17T06:58:52.926Z,5.10
2023-01-17T07:01:38.593Z,5.10
2023-01-17T07:04:24.132Z,5.10
2023-01-17T07:07:10.023Z,5.10
2023-01-17T07:09:55.782Z,5.20
2023-01-17T07:12:42.336Z,5.20
2023-01-17T07:15:28.471Z,5.20
2023-01-17T07:18:16.228Z,5.30
2023-01-17T07:21:01.636Z,5.30
2023-01-17T07:23:48.213Z,5.30
2023-01-17T07:26:33.802Z,5.30
2023-01-17T07:29:19.586Z,5.30
2023-01-17T07:32:08.835Z,5.30
2023-01-17T07:34:56.783Z,5.30
2023-01-17T07:37:50.552Z,5.40
2023-01-17T07:40:41.834Z,5.50
2023-01-17T07:43:28.560Z,5.50
2023-01-17T07:46:17.483Z,5.40
2023-01-17T07:49:03.510Z,5.40
2023-01-17T07:51:49.664Z,5.50
2023-01-17T07:54:35.613Z,5.50
2023-01-17T07:57:21.786Z,5.50
2023-01-17T08:00:08.564Z,5.50
2023-01-17T08:03:01.276Z,5.50
2023-01-17T08:05:54.690Z,5.60
2023-01-17T08:08:40.544Z,5.60
2023-01-17T08:11:26.632Z,5.60
2023-01-17T08:14:11.990Z,5.70
2023-01-17T08:17:17.842Z,5.60
2023-01-17T08:20:06.145Z,5.60
2023-01-17T08:22:56.542Z,5.60
2023-01-17T08:25:42.016Z,5.60
2023-01-17T08:28:27.460Z,5.70
2023-01-17T08:31:12.920Z,5.70
2023-01-17T08:33:58.752Z,5.70
2023-01-17T08:36:44.824Z,5.70
2023-01-17T08:39:30.461Z,5.70
2023-01-17T08:42:17.531Z,5.70
2023-01-17T08:45:05.096Z,5.70
2023-01-17T08:47:50.929Z,5.70
2023-01-17T08:50:36.817Z,5.80
2023-01-17T08:53:23.356Z,5.70
2023-01-17T08:56:10.458Z,5.80
2023-01-17T08:58:56.032Z,5.70
2023-01-17T09:01:41.930Z,5.70
2023-01-17T09:04:28.139Z,5.80
2023-01-17T09:07:15.155Z,5.80
2023-01-17T09:10:00.575Z,5.80
2023-01-17T09:12:46.080Z,5.80
2023-01-17T09:15:32.317Z,5.80
2023-01-17T09:18:17.885Z,5.80
2023-01-17T09:21:12.505Z,5.70
2023-01-17T09:23:58.364Z,5.70
2023-01-17T09:26:43.991Z,5.80
2023-01-17T09:29:30.574Z,5.80
2023-01-17T09:32:17.296Z,5.80
2023-01-17T09:35:07.303Z,5.80
2023-01-17T09:37:52.938Z,5.90
2023-01-17T09:40:48.794Z,5.90
2023-01-17T09:43:47.149Z,5.90
2023-01-17T09:46:39.625Z,6.00
2023-01-17T09:49:31.356Z,5.90
2023-01-17T09:52:21.086Z,5.90
2023-01-17T09:55:08.231Z,5.90
2023-01-17T09:58:09.029Z,6.00
2023-01-17T10:01:00.763Z,5.90
2023-01-17T10:04:13.397Z,6.00
2023-01-17T10:07:32.991Z,5.90
2023-01-17T10:10:18.640Z,5.80
2023-01-17T10:13:37.560Z,5.80
2023-01-17T10:16:35.744Z,5.90
2023-01-17T10:19:44.577Z,5.90
2023-01-17T10:22:36.750Z,5.90
2023-01-17T10:25:42.922Z,5.90
2023-01-17T10:28:46.997Z,5.90
2023-01-17T10:31:41.243Z,5.90
2023-01-17T10:34:53.007Z,5.90
2023-01-17T10:37:44.480Z,5.90
2023-01-17T10:40:40.855Z,6.00
2023-01-17T10:43:57.514Z,5.80
2023-01-17T10:47:05.829Z,6.00
2023-01-17T10:49:54.249Z,6.00
2023-01-17T10:53:00.693Z,6.00
2023-01-17T10:55:53.300Z,5.90
2023-01-17T10:58:39.183Z,5.90
2023-01-17T11:01:26.252Z,5.90
2023-01-17T11:04:29.657Z,5.90
2023-01-17T11:07:19.715Z,5.90
2023-01-17T11:10:05.791Z,6.00
2023-01-17T11:12:51.567Z,5.90
2023-01-17T11:15:39.736Z,5.90
2023-01-17T11:18:31.724Z,5.80
2023-01-17T11:21:25.409Z,5.90
2023-01-17T11:24:16.273Z,5.90
2023-01-17T11:27:05.568Z,5.90
2023-01-17T11:30:15.807Z,5.90
2023-01-17T11:33:07.100Z,5.80
2023-01-17T11:35:52.711Z,5.90
2023-01-17T11:38:38.093Z,5.90
2023-01-17T11:41:29.112Z,5.70
2023-01-17T11:44:23.238Z,5.80
2023-01-17T11:47:19.240Z,5.80
2023-01-17T11:50:26.102Z,5.90
2023-01-17T11:53:32.063Z,5.80
2023-01-17T11:56:31.513Z,5.90
2023-01-17T11:59:35.024Z,5.80
2023-01-17T12:02:47.952Z,5.80
2023-01-17T12:06:07.450Z,5.90
2023-01-17T12:09:28.528Z,6.00
2023-01-17T12:13:06.751Z,6.00
2023-01-17T12:16:28.849Z,6.00
2023-01-17T12:19:46.094Z,6.00
2023-01-17T12:23:13.751Z,6.10
2023-01-17T12:26:40.364Z,6.00
2023-01-17T12:29:46.909Z,6.00
2023-01-17T12:33:00.161Z,6.10
2023-01-17T12:35:55.643Z,6.10
2023-01-17T12:38:42.528Z,6.10
2023-01-17T12:41:35.367Z,6.10
2023-01-17T12:44:36.040Z,6.00
2023-01-17T12:47:22.284Z,5.90
2023-01-17T12:50:58.539Z,6.00
2023-01-17T12:54:12.967Z,6.00
2023-01-17T12:57:23.248Z,6.10
2023-01-17T13:00:22.869Z,6.20
2023-01-17T13:03:27.398Z,6.20
2023-01-17T13:06:26.383Z,6.20
2023-01-17T13:09:17.853Z,6.30
2023-01-17T13:12:07.780Z,6.30
2023-01-17T13:14:53.753Z,6.40
2023-01-17T13:17:50.019Z,6.40
2023-01-17T13:21:10.510Z,6.40
2023-01-17T13:24:15.781Z,6.50
2023-01-17T13:27:07.637Z,6.40
2023-01-17T13:30:22.044Z,6.40
2023-01-17T13:33:40.766Z,6.30
2023-01-17T13:36:51.704Z,6.30
2023-01-17T13:39:53.727Z,6.30
2023-01-17T13:42:45.544Z,6.20
2023-01-17T13:45:34.581Z,6.20
2023-01-17T13:48:25.866Z,6.20
2023-01-17T13:51:11.651Z,6.30
2023-01-17T13:53:58.805Z,6.30
2023-01-17T13:56:45.408Z,6.30
2023-01-17T13:59:30.904Z,6.30
2023-01-17T14:02:36.081Z,6.30
2023-01-17T14:05:30.677Z,6.20
2023-01-17T14:08:21.819Z,6.20
2023-01-17T14:11:12.048Z,6.30
2023-01-17T14:13:58.647Z,6.30
2023-01-17T14:16:46.294Z,6.20
2023-01-17T14:19:37.095Z,6.20
2023-01-17T14:22:39.657Z,6.30
2023-01-17T14:25:30.009Z,6.30
2023-01-17T14:28:26.231Z,6.30
2023-01-17T14:31:14.082Z,6.20
2023-01-17T14:34:12.798Z,6.30
2023-01-17T14:37:13.281Z,6.20
2023-01-17T14:40:00.698Z,6.10
2023-01-17T14:42:58.390Z,5.90
2023-01-17T14:45:46.004Z,5.70
2023-01-17T14:48:32.302Z,5.60
2023-01-17T14:51:24.799Z,5.60
2023-01-17T14:54:20.893Z,5.60
2023-01-17T14:57:29.128Z,5.70
2023-01-17T15:00:20.045Z,5.60
2023-01-17T15:03:10.591Z,5.60
2023-01-17T15:06:04.903Z,5.60
2023-01-17T15:08:55.520Z,5.70
2023-01-17T15:11:41.819Z,5.50
2023-01-17T15:14:33.906Z,5.40
2023-01-17T15:17:26.425Z,5.30
2023-01-17T15:20:16.613Z,5.30
2023-01-17T15:23:03.697Z,5.40
2023-01-17T15:25:52.139Z,5.30
2023-01-17T15:28:38.114Z,5.30
2023-01-17T15:31:42.210Z,5.40
2023-01-17T15:34:28.227Z,5.30
2023-01-17T15:37:41.700Z,5.10
2023-01-17T15:40:29.420Z,5.30
2023-01-17T15:43:20.807Z,5.20
2023-01-17T15:46:06.910Z,5.10
2023-01-17T15:48:53.107Z,5.10
2023-01-17T15:51:41.429Z,5.20
2023-01-17T15:54:55.889Z,5.20
2023-01-17T15:57:47.617Z,5.10
2023-01-17T16:00:41.895Z,5.00
2023-01-17T16:03:31.460Z,5.20
2023-01-17T16:06:45.671Z,5.10
2023-01-17T16:09:43.180Z,5.20
2023-01-17T16:12:29.023Z,5.10
2023-01-17T16:15:17.557Z,5.10
2023-01-17T16:18:24.358Z,5.10
2023-01-17T16:21:18.530Z,5.10
2023-01-17T16:24:09.524Z,5.20
2023-01-17T16:26:54.873Z,5.00
2023-01-17T16:29:41.996Z,5.10
2023-01-17T16:32:27.904Z,5.10
2023-01-17T16:35:21.912Z,5.10
2023-01-17T16:38:13.940Z,5.00
2023-01-17T16:40:59.963Z,4.80
2023-01-17T16:43:48.254Z,4.90
2023-01-17T16:46:38.450Z,4.90
2023-01-17T16:49:24.254Z,4.80
2023-01-17T16:52:09.799Z,4.80
2023-01-17T16:54:56.045Z,4.90
2023-01-17T16:57:42.544Z,4.70
2023-01-17T17:00:28.476Z,4.80
2023-01-17T17:03:17.180Z,4.90
2023-01-17T17:06:03.308Z,5.00
2023-01-17T17:08:49.050Z,5.00
2023-01-17T17:11:35.639Z,5.00
2023-01-17T17:14:21.638Z,5.10
2023-01-17T17:17:08.154Z,5.00
2023-01-17T17:19:54.405Z,5.10
2023-01-17T17:22:48.904Z,5.10
2023-01-17T17:25:34.569Z,5.10
2023-01-17T17:28:20.209Z,5.00
2023-01-17T17:31:10.421Z,5.10
2023-01-17T17:34:01.513Z,5.10
2023-01-17T17:36:47.487Z,5.10
2023-01-17T17:39:33.516Z,5.20
2023-01-17T17:42:19.986Z,5.30
2023-01-17T17:45:06.100Z,5.30
2023-01-17T17:47:52.284Z,5.30
2023-01-17T17:50:38.836Z,5.20
2023-01-17T17:53:25.570Z,5.30
2023-01-17T17:56:11.966Z,5.30
2023-01-17T17:58:59.472Z,5.30
2023-01-17T18:01:46.250Z,5.30
2023-01-17T18:04:33.011Z,5.30
2023-01-17T18:07:19.538Z,5.30
2023-01-17T18:10:05.614Z,5.40
2023-01-17T18:12:51.527Z,5.30
2023-01-17T18:15:37.872Z,5.20
2023-01-17T18:18:24.828Z,5.20
2023-01-17T18:21:14.891Z,5.20
2023-01-17T18:24:03.244Z,5.10
2023-01-17T18:26:55.845Z,5.20
2023-01-17T18:29:41.647Z,5.20
2023-01-17T18:32:27.603Z,5.20
2023-01-17T18:35:13.661Z,5.20
2023-01-17T18:37:59.767Z,5.20
2023-01-17T18:40:45.559Z,5.20
2023-01-17T18:43:31.836Z,5.20
2023-01-17T18:46:23.348Z,5.20
2023-01-17T18:49:11.632Z,5.10
2023-01-17T18:51:57.478Z,5.10
2023-01-17T18:54:44.036Z,5.20
2023-01-17T18:57:30.224Z,5.20
2023-01-17T19:00:16.601Z,5.10
2023-01-17T19:03:02.654Z,5.10
2023-01-17T19:05:48.569Z,5.10
2023-01-17T19:08:35.696Z,5.20
2023-01-17T19:11:22.992Z,5.20
2023-01-17T19:14:09.963Z,5.10
2023-01-17T19:16:57.117Z,5.00
2023-01-17T19:19:43.308Z,5.10
2023-01-17T19:22:28.975Z,5.20
2023-01-17T19:25:14.999Z,5.20
2023-01-17T19:28:01.259Z,5.20
2023-01-17T19:30:46.870Z,5.20
2023-01-17T19:33:34.761Z,5.20
2023-01-17T19:36:23.379Z,5.20
2023-01-17T19:39:09.666Z,5.20
2023-01-17T19:41:55.615Z,5.10
2023-01-17T19:44:44.327Z,5.20
2023-01-17T19:47:29.755Z,5.10
2023-01-17T19:50:17.056Z,5.20
2023-01-17T19:53:02.947Z,5.20
2023-01-17T19:55:48.866Z,5.20
2023-01-17T19:58:35.412Z,5.20
2023-01-17T20:01:24.697Z,5.20
2023-01-17T20:04:10.640Z,5.20
2023-01-17T20:06:56.242Z,5.10
2023-01-17T20:09:42.369Z,5.10
2023-01-17T20:12:28.283Z,5.20
2023-01-17T20:15:14.041Z,5.20
2023-01-17T20:18:02.364Z,5.20
2023-01-17T20:20:57.074Z,5.20
2023-01-17T20:23:47.035Z,5.10
2023-01-17T20:26:35.345Z,5.10
2023-01-17T20:29:20.867Z,5.20
2023-01-17T20:32:08.019Z,5.20
2023-01-17T20:34:54.535Z,5.20
2023-01-17T20:37:40.349Z,5.10
2023-01-17T20:40:26.710Z,5.10
2023-01-17T20:43:14.288Z,5.10
2023-01-17T20:46:00.392Z,5.10
2023-01-17T20:48:52.434Z,5.10
2023-01-17T20:51:40.104Z,5.20
2023-01-17T20:54:27.558Z,5.10
2023-01-17T20:57:13.965Z,5.10
2023-01-17T21:00:00.475Z,5.10
2023-01-17T21:02:47.075Z,5.10
2023-01-17T21:05:37.965Z,5.10
2023-01-17T21:08:28.151Z,5.00
2023-01-17T21:11:17.927Z,5.10
2023-01-17T21:14:07.839Z,5.00
2023-01-17T21:16:54.068Z,5.00
2023-01-17T21:19:41.814Z,5.00
2023-01-17T21:22:29.330Z,4.90
2023-01-17T21:25:15.110Z,5.00
2023-01-17T21:28:01.126Z,5.10
2023-01-17T21:30:49.814Z,5.10
2023-01-17T21:33:36.544Z,5.10
2023-01-17T21:36:25.678Z,5.00
2023-01-17T21:39:15.849Z,5.00
2023-01-17T21:42:01.611Z,5.10
2023-01-17T21:44:49.364Z,5.00
2023-01-17T21:47:35.639Z,5.00
2023-01-17T21:50:32.810Z,5.00
2023-01-17T21:53:19.646Z,4.90
2023-01-17T21:56:27.154Z,4.90
2023-01-17T21:59:12.967Z,4.90
2023-01-17T22:01:59.655Z,4.90
2023-01-17T22:04:45.392Z,4.90
2023-01-17T22:07:31.761Z,4.90
2023-01-17T22:10:17.944Z,4.90
2023-01-17T22:13:03.692Z,4.90
2023-01-17T22:15:59.706Z,5.00
2023-01-17T22:18:46.744Z,5.00
2023-01-17T22:21:32.070Z,4.90
2023-01-17T22:24:18.276Z,4.90
2023-01-17T22:27:04.642Z,4.90
2023-01-17T22:29:50.526Z,4.80
2023-01-17T22:32:36.411Z,4.90
2023-01-17T22:35:23.650Z,4.80
2023-01-17T22:38:09.448Z,4.80
2023-01-17T22:41:05.366Z,4.80
2023-01-17T22:43:53.311Z,4.80
2023-01-17T22:46:41.417Z,4.80
2023-01-17T22:49:28.154Z,4.60
2023-01-17T22:52:13.999Z,4.70
2023-01-17T22:54:59.364Z,4.80
2023-01-17T22:57:46.625Z,4.90
2023-01-17T23:00:33.249Z,4.80
2023-01-17T23:03:19.452Z,4.90
2023-01-17T23:06:12.987Z,4.80
2023-01-17T23:09:02.370Z,4.80
2023-01-17T23:11:52.602Z,4.80
2023-01-17T23:14:57.165Z,4.80
2023-01-17T23:18:01.840Z,4.80
2023-01-17T23:20:47.235Z,4.70
2023-01-17T23:23:33.260Z,4.80
2023-01-17T23:26:19.594Z,4.80
2023-01-17T23:29:05.502Z,4.80
2023-01-17T23:31:51.299Z,4.70
2023-01-17T23:34:36.906Z,4.80
2023-01-17T23:37:47.120Z,4.80
2023-01-17T23:40:34.825Z,4.70
2023-01-17T23:43:23.156Z,4.70
2023-01-17T23:46:11.804Z,4.80
2023-01-17T23:48:57.719Z,4.80
2023-01-17T23:51:43.538Z,4.80
2023-01-17T23:54:31.924Z,4.80
2023-01-17T23:57:20.340Z,4.80
